sensor_id;sensor_type;location;lat;lon;timestamp;P1;durP1;ratioP1;P2;durP2;ratioP2
9166;SDS011;4618;48.818;9.088;2023-08-17T00:02:16;21.07;;;17.50;;
9166;SDS011;4618;48.818;9.088;2023-08-17T00:04:41;18.57;;;16.87;;
9166;SDS011;4618;48.818;9.088;2023-08-17T00:07:07;19.60;;;17.70;;
9166;SDS011;4618;48.818;9.088;2023-08-17T00:09:33;20.47;;;18.37;;
9166;SDS011;4618;48.818;9.088;2023-08-17T00:11:58;19.73;;;17.87;;
9166;SDS011;4618;48.818;9.088;2023-08-17T00:14:24;20.97;;;18.90;;
9166;SDS011;4618;48.818;9.088;2023-08-17T00:16:50;22.60;;;20.30;;
9166;SDS011;4618;48.818;9.088;2023-08-17T00:19:16;24.20;;;21.60;;
9166;SDS011;4618;48.818;9.088;2023-08-17T00:21:42;23.37;;;20.20;;
9166;SDS011;4618;48.818;9.088;2023-08-17T00:24:09;18.67;;;16.90;;
9166;SDS011;4618;48.818;9.088;2023-08-17T00:26:34;19.57;;;17.57;;
9166;SDS011;4618;48.818;9.088;2023-08-17T00:29:00;17.23;;;15.43;;
9166;SDS011;4618;48.818;9.088;2023-08-17T00:31:25;16.83;;;13.73;;
9166;SDS011;4618;48.818;9.088;2023-08-17T00:33:51;14.37;;;12.77;;
9166;SDS011;4618;48.818;9.088;2023-08-17T00:36:17;14.43;;;13.03;;
9166;SDS011;4618;48.818;9.088;2023-08-17T00:38:42;13.77;;;12.37;;
9166;SDS011;4618;48.818;9.088;2023-08-17T00:41:08;14.40;;;12.93;;
9166;SDS011;4618;48.818;9.088;2023-08-17T00:43:33;13.57;;;12.17;;
9166;SDS011;4618;48.818;9.088;2023-08-17T00:45:59;14.23;;;12.13;;
9166;SDS011;4618;48.818;9.088;2023-08-17T00:48:25;13.97;;;12.40;;
9166;SDS011;4618;48.818;9.088;2023-08-17T00:50:52;14.43;;;12.80;;
9166;SDS011;4618;48.818;9.088;2023-08-17T00:53:18;13.60;;;12.33;;
9166;SDS011;4618;48.818;9.088;2023-08-17T00:55:45;13.30;;;11.90;;
9166;SDS011;4618;48.818;9.088;2023-08-17T00:58:11;14.93;;;13.33;;
9166;SDS011;4618;48.818;9.088;2023-08-17T01:00:36;14.57;;;13.13;;
9166;SDS011;4618;48.818;9.088;2023-08-17T01:03:02;15.23;;;13.73;;
9166;SDS011;4618;48.818;9.088;2023-08-17T01:05:29;14.43;;;13.00;;
9166;SDS011;4618;48.818;9.088;2023-08-17T01:07:57;15.47;;;13.97;;
9166;SDS011;4618;48.818;9.088;2023-08-17T01:10:23;15.53;;;14.13;;
9166;SDS011;4618;48.818;9.088;2023-08-17T01:13:13;16.43;;;14.83;;
9166;SDS011;4618;48.818;9.088;2023-08-17T01:15:46;17.83;;;15.87;;
9166;SDS011;4618;48.818;9.088;2023-08-17T01:18:23;18.77;;;15.63;;
9166;SDS011;4618;48.818;9.088;2023-08-17T01:21:09;18.00;;;16.17;;
9166;SDS011;4618;48.818;9.088;2023-08-17T01:23:38;17.53;;;15.73;;
9166;SDS011;4618;48.818;9.088;2023-08-17T01:26:04;19.87;;;17.60;;
9166;SDS011;4618;48.818;9.088;2023-08-17T01:28:29;19.30;;;17.30;;
9166;SDS011;4618;48.818;9.088;2023-08-17T01:30:57;16.97;;;15.27;;
9166;SDS011;4618;48.818;9.088;2023-08-17T01:36:16;18.13;;;16.27;;
9166;SDS011;4618;48.818;9.088;2023-08-17T01:39:09;18.23;;;16.30;;
9166;SDS011;4618;48.818;9.088;2023-08-17T01:41:36;18.57;;;15.43;;
9166;SDS011;4618;48.818;9.088;2023-08-17T01:44:03;17.63;;;15.77;;
9166;SDS011;4618;48.818;9.088;2023-08-17T01:46:30;17.33;;;15.63;;
9166;SDS011;4618;48.818;9.088;2023-08-17T01:48:57;17.30;;;14.73;;
9166;SDS011;4618;48.818;9.088;2023-08-17T01:51:23;16.93;;;15.23;;
9166;SDS011;4618;48.818;9.088;2023-08-17T01:53:50;16.50;;;14.93;;
9166;SDS011;4618;48.818;9.088;2023-08-17T01:56:15;16.10;;;14.60;;
9166;SDS011;4618;48.818;9.088;2023-08-17T01:58:41;15.87;;;14.33;;
9166;SDS011;4618;48.818;9.088;2023-08-17T02:01:07;14.87;;;13.63;;
9166;SDS011;4618;48.818;9.088;2023-08-17T02:03:32;15.17;;;13.67;;
9166;SDS011;4618;48.818;9.088;2023-08-17T02:06:01;14.13;;;12.90;;
9166;SDS011;4618;48.818;9.088;2023-08-17T02:08:27;13.90;;;12.60;;
9166;SDS011;4618;48.818;9.088;2023-08-17T02:10:52;13.63;;;12.43;;
9166;SDS011;4618;48.818;9.088;2023-08-17T02:13:18;14.57;;;13.30;;
9166;SDS011;4618;48.818;9.088;2023-08-17T02:15:44;15.20;;;13.60;;
9166;SDS011;4618;48.818;9.088;2023-08-17T02:18:11;13.33;;;12.03;;
9166;SDS011;4618;48.818;9.088;2023-08-17T02:20:36;13.80;;;12.50;;
9166;SDS011;4618;48.818;9.088;2023-08-17T02:23:02;15.17;;;13.73;;
9166;SDS011;4618;48.818;9.088;2023-08-17T02:25:28;16.30;;;14.80;;
9166;SDS011;4618;48.818;9.088;2023-08-17T02:28:00;16.90;;;14.57;;
9166;SDS011;4618;48.818;9.088;2023-08-17T02:30:26;15.73;;;14.33;;
9166;SDS011;4618;48.818;9.088;2023-08-17T02:32:52;15.60;;;14.00;;
9166;SDS011;4618;48.818;9.088;2023-08-17T02:35:18;15.43;;;13.93;;
9166;SDS011;4618;48.818;9.088;2023-08-17T02:37:43;15.00;;;13.40;;
9166;SDS011;4618;48.818;9.088;2023-08-17T02:40:27;16.13;;;14.60;;
9166;SDS011;4618;48.818;9.088;2023-08-17T02:42:53;16.53;;;14.27;;
9166;SDS011;4618;48.818;9.088;2023-08-17T02:45:18;15.57;;;14.03;;
9166;SDS011;4618;48.818;9.088;2023-08-17T02:47:44;14.63;;;13.23;;
9166;SDS011;4618;48.818;9.088;2023-08-17T02:50:09;15.00;;;13.70;;
9166;SDS011;4618;48.818;9.088;2023-08-17T02:52:35;15.87;;;14.13;;
9166;SDS011;4618;48.818;9.088;2023-08-17T02:55:00;14.53;;;13.03;;
9166;SDS011;4618;48.818;9.088;2023-08-17T02:57:26;14.80;;;13.40;;
9166;SDS011;4618;48.818;9.088;2023-08-17T02:59:52;14.07;;;12.80;;
9166;SDS011;4618;48.818;9.088;2023-08-17T03:02:17;13.37;;;12.17;;
9166;SDS011;4618;48.818;9.088;2023-08-17T03:04:43;15.40;;;13.90;;
9166;SDS011;4618;48.818;9.088;2023-08-17T03:07:08;14.83;;;13.53;;
9166;SDS011;4618;48.818;9.088;2023-08-17T03:09:34;13.23;;;12.03;;
9166;SDS011;4618;48.818;9.088;2023-08-17T03:11:59;15.33;;;13.93;;
9166;SDS011;4618;48.818;9.088;2023-08-17T03:14:25;15.90;;;14.40;;
9166;SDS011;4618;48.818;9.088;2023-08-17T03:16:50;15.87;;;14.23;;
9166;SDS011;4618;48.818;9.088;2023-08-17T03:19:16;15.80;;;14.40;;
9166;SDS011;4618;48.818;9.088;2023-08-17T03:21:42;20.97;;;17.90;;
9166;SDS011;4618;48.818;9.088;2023-08-17T03:24:08;22.93;;;18.23;;
9166;SDS011;4618;48.818;9.088;2023-08-17T03:26:33;16.80;;;14.63;;
9166;SDS011;4618;48.818;9.088;2023-08-17T03:28:59;17.70;;;15.80;;
9166;SDS011;4618;48.818;9.088;2023-08-17T03:31:25;18.67;;;16.67;;
9166;SDS011;4618;48.818;9.088;2023-08-17T03:33:50;19.80;;;16.50;;
9166;SDS011;4618;48.818;9.088;2023-08-17T03:36:16;19.33;;;17.17;;
9166;SDS011;4618;48.818;9.088;2023-08-17T03:38:41;20.03;;;17.77;;
9166;SDS011;4618;48.818;9.088;2023-08-17T03:41:07;20.27;;;17.37;;
9166;SDS011;4618;48.818;9.088;2023-08-17T03:43:33;25.40;;;18.77;;
9166;SDS011;4618;48.818;9.088;2023-08-17T03:45:58;25.53;;;18.53;;
9166;SDS011;4618;48.818;9.088;2023-08-17T03:48:24;21.80;;;17.47;;
9166;SDS011;4618;48.818;9.088;2023-08-17T03:50:53;21.97;;;17.93;;
9166;SDS011;4618;48.818;9.088;2023-08-17T03:53:19;21.77;;;18.60;;
9166;SDS011;4618;48.818;9.088;2023-08-17T03:55:49;19.97;;;17.83;;
9166;SDS011;4618;48.818;9.088;2023-08-17T03:58:15;19.80;;;16.67;;
9166;SDS011;4618;48.818;9.088;2023-08-17T04:00:50;19.23;;;16.63;;
9166;SDS011;4618;48.818;9.088;2023-08-17T04:03:16;21.00;;;16.17;;
9166;SDS011;4618;48.818;9.088;2023-08-17T04:05:42;20.50;;;17.17;;
9166;SDS011;4618;48.818;9.088;2023-08-17T04:08:08;20.30;;;18.13;;
9166;SDS011;4618;48.818;9.088;2023-08-17T04:10:33;19.97;;;16.40;;
9166;SDS011;4618;48.818;9.088;2023-08-17T04:12:59;22.03;;;17.20;;
9166;SDS011;4618;48.818;9.088;2023-08-17T04:15:24;17.80;;;15.83;;
9166;SDS011;4618;48.818;9.088;2023-08-17T04:17:50;20.17;;;17.20;;
9166;SDS011;4618;48.818;9.088;2023-08-17T04:20:16;20.80;;;18.30;;
9166;SDS011;4618;48.818;9.088;2023-08-17T04:22:43;24.50;;;18.90;;
9166;SDS011;4618;48.818;9.088;2023-08-17T04:25:09;21.07;;;18.00;;
9166;SDS011;4618;48.818;9.088;2023-08-17T04:27:34;21.83;;;17.80;;
9166;SDS011;4618;48.818;9.088;2023-08-17T04:30:00;24.13;;;18.93;;
9166;SDS011;4618;48.818;9.088;2023-08-17T04:32:26;21.43;;;17.93;;
9166;SDS011;4618;48.818;9.088;2023-08-17T04:34:52;21.23;;;17.10;;
9166;SDS011;4618;48.818;9.088;2023-08-17T04:37:17;23.10;;;18.37;;
9166;SDS011;4618;48.818;9.088;2023-08-17T04:39:43;18.97;;;16.63;;
9166;SDS011;4618;48.818;9.088;2023-08-17T04:42:09;19.47;;;16.03;;
9166;SDS011;4618;48.818;9.088;2023-08-17T04:44:35;18.87;;;15.83;;
9166;SDS011;4618;48.818;9.088;2023-08-17T04:47:00;18.33;;;15.63;;
9166;SDS011;4618;48.818;9.088;2023-08-17T04:49:26;17.10;;;15.47;;
9166;SDS011;4618;48.818;9.088;2023-08-17T04:51:52;17.97;;;15.10;;
9166;SDS011;4618;48.818;9.088;2023-08-17T04:54:18;16.43;;;14.77;;
9166;SDS011;4618;48.818;9.088;2023-08-17T04:56:44;16.27;;;14.10;;
9166;SDS011;4618;48.818;9.088;2023-08-17T04:59:09;15.20;;;13.60;;
9166;SDS011;4618;48.818;9.088;2023-08-17T05:01:35;14.37;;;12.97;;
9166;SDS011;4618;48.818;9.088;2023-08-17T05:04:01;13.97;;;12.53;;
9166;SDS011;4618;48.818;9.088;2023-08-17T05:06:29;13.37;;;12.07;;
9166;SDS011;4618;48.818;9.088;2023-08-17T05:08:56;12.80;;;11.50;;
9166;SDS011;4618;48.818;9.088;2023-08-17T05:11:23;13.23;;;11.93;;
9166;SDS011;4618;48.818;9.088;2023-08-17T05:13:48;15.93;;;11.90;;
9166;SDS011;4618;48.818;9.088;2023-08-17T05:16:14;12.90;;;11.70;;
9166;SDS011;4618;48.818;9.088;2023-08-17T05:18:40;13.50;;;12.33;;
9166;SDS011;4618;48.818;9.088;2023-08-17T05:21:05;14.87;;;13.47;;
9166;SDS011;4618;48.818;9.088;2023-08-17T05:23:31;15.10;;;13.63;;
9166;SDS011;4618;48.818;9.088;2023-08-17T05:25:57;14.37;;;12.90;;
9166;SDS011;4618;48.818;9.088;2023-08-17T05:28:22;15.37;;;13.77;;
9166;SDS011;4618;48.818;9.088;2023-08-17T05:30:48;14.33;;;12.93;;
9166;SDS011;4618;48.818;9.088;2023-08-17T05:33:14;16.57;;;14.83;;
9166;SDS011;4618;48.818;9.088;2023-08-17T05:35:40;15.50;;;14.07;;
9166;SDS011;4618;48.818;9.088;2023-08-17T05:38:07;16.00;;;14.40;;
9166;SDS011;4618;48.818;9.088;2023-08-17T05:40:33;18.57;;;15.23;;
9166;SDS011;4618;48.818;9.088;2023-08-17T05:42:58;17.67;;;15.90;;
9166;SDS011;4618;48.818;9.088;2023-08-17T05:45:24;18.00;;;16.10;;
9166;SDS011;4618;48.818;9.088;2023-08-17T05:47:51;19.37;;;17.37;;
9166;SDS011;4618;48.818;9.088;2023-08-17T05:50:17;18.40;;;16.53;;
9166;SDS011;4618;48.818;9.088;2023-08-17T05:52:43;17.47;;;15.73;;
9166;SDS011;4618;48.818;9.088;2023-08-17T05:55:08;17.93;;;16.03;;
9166;SDS011;4618;48.818;9.088;2023-08-17T05:57:34;18.00;;;16.20;;
9166;SDS011;4618;48.818;9.088;2023-08-17T06:00:00;18.57;;;16.67;;
9166;SDS011;4618;48.818;9.088;2023-08-17T06:02:25;19.23;;;17.13;;
9166;SDS011;4618;48.818;9.088;2023-08-17T06:04:51;18.67;;;16.67;;
9166;SDS011;4618;48.818;9.088;2023-08-17T06:07:16;18.60;;;16.80;;
9166;SDS011;4618;48.818;9.088;2023-08-17T06:09:42;18.23;;;16.53;;
9166;SDS011;4618;48.818;9.088;2023-08-17T06:12:07;17.63;;;15.83;;
9166;SDS011;4618;48.818;9.088;2023-08-17T06:14:33;20.00;;;18.00;;
9166;SDS011;4618;48.818;9.088;2023-08-17T06:16:59;18.80;;;16.90;;
9166;SDS011;4618;48.818;9.088;2023-08-17T06:19:25;18.30;;;16.60;;
9166;SDS011;4618;48.818;9.088;2023-08-17T06:21:50;16.87;;;15.30;;
9166;SDS011;4618;48.818;9.088;2023-08-17T06:24:16;17.43;;;15.80;;
9166;SDS011;4618;48.818;9.088;2023-08-17T06:26:43;17.03;;;15.50;;
9166;SDS011;4618;48.818;9.088;2023-08-17T06:29:09;16.30;;;14.80;;
9166;SDS011;4618;48.818;9.088;2023-08-17T06:31:34;15.10;;;13.70;;
9166;SDS011;4618;48.818;9.088;2023-08-17T06:34:00;16.93;;;15.23;;
9166;SDS011;4618;48.818;9.088;2023-08-17T06:36:26;15.63;;;14.23;;
9166;SDS011;4618;48.818;9.088;2023-08-17T06:38:56;14.48;;;13.18;;
9166;SDS011;4618;48.818;9.088;2023-08-17T06:41:21;15.00;;;13.50;;
9166;SDS011;4618;48.818;9.088;2023-08-17T06:43:47;17.13;;;15.43;;
9166;SDS011;4618;48.818;9.088;2023-08-17T06:46:12;16.33;;;14.73;;
9166;SDS011;4618;48.818;9.088;2023-08-17T06:48:38;15.52;;;14.02;;
9166;SDS011;4618;48.818;9.088;2023-08-17T06:51:03;14.98;;;13.57;;
9166;SDS011;4618;48.818;9.088;2023-08-17T06:53:30;15.38;;;13.88;;
9166;SDS011;4618;48.818;9.088;2023-08-17T06:55:55;14.95;;;13.60;;
9166;SDS011;4618;48.818;9.088;2023-08-17T06:58:21;16.65;;;14.98;;
9166;SDS011;4618;48.818;9.088;2023-08-17T07:00:47;14.03;;;12.67;;
9166;SDS011;4618;48.818;9.088;2023-08-17T07:03:12;14.75;;;13.45;;
9166;SDS011;4618;48.818;9.088;2023-08-17T07:05:38;15.35;;;13.85;;
9166;SDS011;4618;48.818;9.088;2023-08-17T07:08:04;13.25;;;12.02;;
9166;SDS011;4618;48.818;9.088;2023-08-17T07:10:30;13.88;;;12.35;;
9166;SDS011;4618;48.818;9.088;2023-08-17T07:12:55;12.73;;;11.48;;
9166;SDS011;4618;48.818;9.088;2023-08-17T07:15:21;13.45;;;11.35;;
9166;SDS011;4618;48.818;9.088;2023-08-17T07:17:46;14.20;;;12.27;;
9166;SDS011;4618;48.818;9.088;2023-08-17T07:20:12;14.57;;;13.25;;
9166;SDS011;4618;48.818;9.088;2023-08-17T07:22:37;13.73;;;12.52;;
9166;SDS011;4618;48.818;9.088;2023-08-17T07:25:03;13.50;;;12.10;;
9166;SDS011;4618;48.818;9.088;2023-08-17T07:27:29;13.13;;;12.00;;
9166;SDS011;4618;48.818;9.088;2023-08-17T07:29:55;12.18;;;11.07;;
9166;SDS011;4618;48.818;9.088;2023-08-17T07:32:20;13.02;;;11.75;;
9166;SDS011;4618;48.818;9.088;2023-08-17T07:34:46;13.55;;;12.35;;
9166;SDS011;4618;48.818;9.088;2023-08-17T07:37:12;11.77;;;10.65;;
9166;SDS011;4618;48.818;9.088;2023-08-17T07:39:38;11.55;;;10.48;;
9166;SDS011;4618;48.818;9.088;2023-08-17T07:42:03;12.23;;;9.95;;
9166;SDS011;4618;48.818;9.088;2023-08-17T07:44:29;11.48;;;10.57;;
9166;SDS011;4618;48.818;9.088;2023-08-17T07:46:56;12.50;;;11.38;;
9166;SDS011;4618;48.818;9.088;2023-08-17T07:49:22;10.50;;;9.50;;
9166;SDS011;4618;48.818;9.088;2023-08-17T07:51:49;12.05;;;10.85;;
9166;SDS011;4618;48.818;9.088;2023-08-17T07:54:14;10.63;;;9.73;;
9166;SDS011;4618;48.818;9.088;2023-08-17T07:56:40;11.02;;;9.93;;
9166;SDS011;4618;48.818;9.088;2023-08-17T07:59:05;10.50;;;9.45;;
9166;SDS011;4618;48.818;9.088;2023-08-17T08:01:31;9.15;;;8.25;;
9166;SDS011;4618;48.818;9.088;2023-08-17T08:03:57;8.85;;;7.97;;
9166;SDS011;4618;48.818;9.088;2023-08-17T08:06:23;9.73;;;8.82;;
9166;SDS011;4618;48.818;9.088;2023-08-17T08:08:48;9.20;;;8.40;;
9166;SDS011;4618;48.818;9.088;2023-08-17T08:11:14;7.72;;;7.05;;
9166;SDS011;4618;48.818;9.088;2023-08-17T08:13:40;9.25;;;8.15;;
9166;SDS011;4618;48.818;9.088;2023-08-17T08:16:05;10.00;;;9.00;;
9166;SDS011;4618;48.818;9.088;2023-08-17T08:18:31;8.10;;;7.40;;
9166;SDS011;4618;48.818;9.088;2023-08-17T08:20:56;8.77;;;7.85;;
9166;SDS011;4618;48.818;9.088;2023-08-17T08:23:22;9.13;;;8.32;;
9166;SDS011;4618;48.818;9.088;2023-08-17T08:25:48;8.05;;;7.35;;
9166;SDS011;4618;48.818;9.088;2023-08-17T08:28:13;9.52;;;7.75;;
9166;SDS011;4618;48.818;9.088;2023-08-17T08:30:39;8.73;;;7.82;;
9166;SDS011;4618;48.818;9.088;2023-08-17T08:33:04;9.80;;;8.15;;
9166;SDS011;4618;48.818;9.088;2023-08-17T08:35:30;10.13;;;9.13;;
9166;SDS011;4618;48.818;9.088;2023-08-17T08:37:55;12.00;;;8.77;;
9166;SDS011;4618;48.818;9.088;2023-08-17T08:40:27;8.98;;;7.72;;
9166;SDS011;4618;48.818;9.088;2023-08-17T08:42:54;9.88;;;9.02;;
9166;SDS011;4618;48.818;9.088;2023-08-17T08:45:21;12.43;;;8.25;;
9166;SDS011;4618;48.818;9.088;2023-08-17T08:47:47;9.70;;;8.70;;
9166;SDS011;4618;48.818;9.088;2023-08-17T08:50:16;10.77;;;8.35;;
9166;SDS011;4618;48.818;9.088;2023-08-17T08:52:49;8.45;;;7.75;;
9166;SDS011;4618;48.818;9.088;2023-08-17T08:55:23;10.10;;;9.20;;
9166;SDS011;4618;48.818;9.088;2023-08-17T08:57:52;13.02;;;11.80;;
9166;SDS011;4618;48.818;9.088;2023-08-17T09:00:18;8.30;;;7.38;;
9166;SDS011;4618;48.818;9.088;2023-08-17T09:02:44;6.75;;;6.18;;
9166;SDS011;4618;48.818;9.088;2023-08-17T09:05:11;11.63;;;6.80;;
9166;SDS011;4618;48.818;9.088;2023-08-17T09:07:37;8.45;;;6.35;;
9166;SDS011;4618;48.818;9.088;2023-08-17T09:10:04;6.75;;;6.10;;
9166;SDS011;4618;48.818;9.088;2023-08-17T09:12:31;7.53;;;6.93;;
9166;SDS011;4618;48.818;9.088;2023-08-17T09:15:00;6.43;;;5.82;;
9166;SDS011;4618;48.818;9.088;2023-08-17T09:17:26;6.65;;;6.00;;
9166;SDS011;4618;48.818;9.088;2023-08-17T09:19:52;8.93;;;8.13;;
9166;SDS011;4618;48.818;9.088;2023-08-17T09:22:22;7.63;;;6.70;;
9166;SDS011;4618;48.818;9.088;2023-08-17T09:24:49;8.18;;;7.22;;
9166;SDS011;4618;48.818;9.088;2023-08-17T09:27:14;7.28;;;6.63;;
9166;SDS011;4618;48.818;9.088;2023-08-17T09:29:42;6.57;;;5.97;;
9166;SDS011;4618;48.818;9.088;2023-08-17T09:32:10;7.05;;;6.35;;
9166;SDS011;4618;48.818;9.088;2023-08-17T09:34:36;8.63;;;6.25;;
9166;SDS011;4618;48.818;9.088;2023-08-17T09:37:02;10.73;;;6.75;;
9166;SDS011;4618;48.818;9.088;2023-08-17T09:39:29;9.10;;;8.20;;
9166;SDS011;4618;48.818;9.088;2023-08-17T09:41:55;8.32;;;7.45;;
9166;SDS011;4618;48.818;9.088;2023-08-17T09:44:21;8.20;;;6.53;;
9166;SDS011;4618;48.818;9.088;2023-08-17T09:46:47;7.65;;;6.88;;
9166;SDS011;4618;48.818;9.088;2023-08-17T09:49:13;6.88;;;6.25;;
9166;SDS011;4618;48.818;9.088;2023-08-17T09:51:41;8.27;;;6.85;;
9166;SDS011;4618;48.818;9.088;2023-08-17T09:54:09;8.32;;;7.53;;
9166;SDS011;4618;48.818;9.088;2023-08-17T09:56:48;8.43;;;7.72;;
9166;SDS011;4618;48.818;9.088;2023-08-17T09:59:18;6.93;;;6.32;;
9166;SDS011;4618;48.818;9.088;2023-08-17T10:01:44;7.78;;;6.38;;
9166;SDS011;4618;48.818;9.088;2023-08-17T10:04:15;8.02;;;6.30;;
9166;SDS011;4618;48.818;9.088;2023-08-17T10:06:58;6.43;;;5.72;;
9166;SDS011;4618;48.818;9.088;2023-08-17T10:09:28;7.00;;;6.25;;
9166;SDS011;4618;48.818;9.088;2023-08-17T10:11:58;6.82;;;6.13;;
9166;SDS011;4618;48.818;9.088;2023-08-17T10:14:32;7.78;;;6.88;;
9166;SDS011;4618;48.818;9.088;2023-08-17T10:17:02;6.47;;;5.85;;
9166;SDS011;4618;48.818;9.088;2023-08-17T10:19:49;7.47;;;6.75;;
9166;SDS011;4618;48.818;9.088;2023-08-17T10:22:20;8.18;;;6.72;;
9166;SDS011;4618;48.818;9.088;2023-08-17T10:25:01;6.85;;;6.20;;
9166;SDS011;4618;48.818;9.088;2023-08-17T10:27:28;7.30;;;6.25;;
9166;SDS011;4618;48.818;9.088;2023-08-17T10:29:55;8.55;;;6.75;;
9166;SDS011;4618;48.818;9.088;2023-08-17T10:32:21;7.13;;;5.70;;
9166;SDS011;4618;48.818;9.088;2023-08-17T10:34:48;6.50;;;5.90;;
9166;SDS011;4618;48.818;9.088;2023-08-17T10:37:15;6.15;;;5.15;;
9166;SDS011;4618;48.818;9.088;2023-08-17T10:39:48;6.50;;;5.60;;
9166;SDS011;4618;48.818;9.088;2023-08-17T10:42:14;6.47;;;5.85;;
9166;SDS011;4618;48.818;9.088;2023-08-17T10:44:45;5.75;;;5.25;;
9166;SDS011;4618;48.818;9.088;2023-08-17T10:47:18;6.65;;;6.00;;
9166;SDS011;4618;48.818;9.088;2023-08-17T10:49:49;7.32;;;5.55;;
9166;SDS011;4618;48.818;9.088;2023-08-17T10:52:34;6.13;;;5.18;;
9166;SDS011;4618;48.818;9.088;2023-08-17T10:55:02;6.28;;;5.65;;
9166;SDS011;4618;48.818;9.088;2023-08-17T10:57:40;5.40;;;4.90;;
9166;SDS011;4618;48.818;9.088;2023-08-17T11:02:39;5.22;;;4.78;;
9166;SDS011;4618;48.818;9.088;2023-08-17T11:05:05;5.78;;;4.97;;
9166;SDS011;4618;48.818;9.088;2023-08-17T11:07:41;6.30;;;4.63;;
9166;SDS011;4618;48.818;9.088;2023-08-17T11:10:10;6.63;;;5.90;;
9166;SDS011;4618;48.818;9.088;2023-08-17T11:12:45;5.93;;;5.40;;
9166;SDS011;4618;48.818;9.088;2023-08-17T11:15:11;8.45;;;5.45;;
9166;SDS011;4618;48.818;9.088;2023-08-17T11:17:36;7.47;;;5.32;;
9166;SDS011;4618;48.818;9.088;2023-08-17T11:20:03;8.57;;;5.50;;
9166;SDS011;4618;48.818;9.088;2023-08-17T11:22:29;6.57;;;5.40;;
9166;SDS011;4618;48.818;9.088;2023-08-17T11:24:55;8.95;;;5.80;;
9166;SDS011;4618;48.818;9.088;2023-08-17T11:27:21;7.75;;;5.88;;
9166;SDS011;4618;48.818;9.088;2023-08-17T11:29:46;5.63;;;5.10;;
9166;SDS011;4618;48.818;9.088;2023-08-17T11:32:13;5.13;;;4.75;;
9166;SDS011;4618;48.818;9.088;2023-08-17T11:34:41;6.22;;;5.05;;
9166;SDS011;4618;48.818;9.088;2023-08-17T11:37:07;7.22;;;5.78;;
9166;SDS011;4618;48.818;9.088;2023-08-17T11:39:35;5.85;;;5.35;;
9166;SDS011;4618;48.818;9.088;2023-08-17T11:42:01;6.13;;;5.53;;
9166;SDS011;4618;48.818;9.088;2023-08-17T11:44:26;5.80;;;5.30;;
9166;SDS011;4618;48.818;9.088;2023-08-17T11:46:53;6.28;;;5.68;;
9166;SDS011;4618;48.818;9.088;2023-08-17T11:49:18;7.40;;;6.70;;
9166;SDS011;4618;48.818;9.088;2023-08-17T11:51:44;7.68;;;6.78;;
9166;SDS011;4618;48.818;9.088;2023-08-17T11:54:10;7.07;;;6.50;;
9166;SDS011;4618;48.818;9.088;2023-08-17T11:56:36;6.80;;;6.20;;
9166;SDS011;4618;48.818;9.088;2023-08-17T11:59:08;6.82;;;5.97;;
9166;SDS011;4618;48.818;9.088;2023-08-17T12:01:39;7.38;;;6.72;;
9166;SDS011;4618;48.818;9.088;2023-08-17T12:04:05;7.13;;;6.20;;
9166;SDS011;4618;48.818;9.088;2023-08-17T12:06:31;6.88;;;6.32;;
9166;SDS011;4618;48.818;9.088;2023-08-17T12:08:57;6.38;;;5.78;;
9166;SDS011;4618;48.818;9.088;2023-08-17T12:11:23;8.80;;;5.97;;
9166;SDS011;4618;48.818;9.088;2023-08-17T12:13:53;7.43;;;5.60;;
9166;SDS011;4618;48.818;9.088;2023-08-17T12:16:19;6.10;;;5.60;;
9166;SDS011;4618;48.818;9.088;2023-08-17T12:18:48;7.60;;;5.57;;
9166;SDS011;4618;48.818;9.088;2023-08-17T12:21:15;8.27;;;5.68;;
9166;SDS011;4618;48.818;9.088;2023-08-17T12:23:41;6.20;;;5.47;;
9166;SDS011;4618;48.818;9.088;2023-08-17T12:26:07;6.50;;;5.80;;
9166;SDS011;4618;48.818;9.088;2023-08-17T12:28:33;25.50;;;9.10;;
9166;SDS011;4618;48.818;9.088;2023-08-17T12:30:59;18.05;;;7.53;;
9166;SDS011;4618;48.818;9.088;2023-08-17T12:33:25;9.13;;;7.20;;
9166;SDS011;4618;48.818;9.088;2023-08-17T12:35:51;7.25;;;6.65;;
9166;SDS011;4618;48.818;9.088;2023-08-17T12:38:17;7.40;;;6.70;;
9166;SDS011;4618;48.818;9.088;2023-08-17T12:40:42;6.68;;;5.65;;
9166;SDS011;4618;48.818;9.088;2023-08-17T12:43:08;6.07;;;5.57;;
9166;SDS011;4618;48.818;9.088;2023-08-17T12:45:34;7.38;;;6.00;;
9166;SDS011;4618;48.818;9.088;2023-08-17T12:47:59;6.13;;;5.63;;
9166;SDS011;4618;48.818;9.088;2023-08-17T12:50:25;6.90;;;6.20;;
9166;SDS011;4618;48.818;9.088;2023-08-17T12:52:50;5.78;;;5.25;;
9166;SDS011;4618;48.818;9.088;2023-08-17T12:55:16;7.35;;;6.00;;
9166;SDS011;4618;48.818;9.088;2023-08-17T12:57:42;6.95;;;5.20;;
9166;SDS011;4618;48.818;9.088;2023-08-17T13:00:07;6.05;;;5.32;;
9166;SDS011;4618;48.818;9.088;2023-08-17T13:02:33;6.28;;;5.60;;
9166;SDS011;4618;48.818;9.088;2023-08-17T13:04:59;7.43;;;5.68;;
9166;SDS011;4618;48.818;9.088;2023-08-17T13:07:25;7.28;;;6.32;;
9166;SDS011;4618;48.818;9.088;2023-08-17T13:09:50;6.53;;;6.03;;
9166;SDS011;4618;48.818;9.088;2023-08-17T13:12:16;7.28;;;6.45;;
9166;SDS011;4618;48.818;9.088;2023-08-17T13:14:41;7.63;;;6.90;;
9166;SDS011;4618;48.818;9.088;2023-08-17T13:17:07;9.73;;;7.95;;
9166;SDS011;4618;48.818;9.088;2023-08-17T13:19:33;10.13;;;8.38;;
9166;SDS011;4618;48.818;9.088;2023-08-17T13:21:58;9.23;;;8.48;;
9166;SDS011;4618;48.818;9.088;2023-08-17T13:24:24;10.52;;;9.43;;
9166;SDS011;4618;48.818;9.088;2023-08-17T13:26:49;10.77;;;9.73;;
9166;SDS011;4618;48.818;9.088;2023-08-17T13:29:18;10.45;;;9.38;;
9166;SDS011;4618;48.818;9.088;2023-08-17T13:31:45;10.82;;;9.82;;
9166;SDS011;4618;48.818;9.088;2023-08-17T13:34:12;10.45;;;9.65;;
9166;SDS011;4618;48.818;9.088;2023-08-17T13:36:38;11.80;;;10.30;;
9166;SDS011;4618;48.818;9.088;2023-08-17T13:39:04;11.05;;;10.00;;
9166;SDS011;4618;48.818;9.088;2023-08-17T13:41:31;11.50;;;10.32;;
9166;SDS011;4618;48.818;9.088;2023-08-17T13:43:56;11.15;;;10.02;;
9166;SDS011;4618;48.818;9.088;2023-08-17T13:46:22;11.13;;;10.13;;
9166;SDS011;4618;48.818;9.088;2023-08-17T13:48:51;10.90;;;9.90;;
9166;SDS011;4618;48.818;9.088;2023-08-17T13:51:18;11.68;;;10.52;;
9166;SDS011;4618;48.818;9.088;2023-08-17T13:53:44;10.40;;;9.30;;
9166;SDS011;4618;48.818;9.088;2023-08-17T13:56:10;10.75;;;9.77;;
9166;SDS011;4618;48.818;9.088;2023-08-17T13:58:36;10.15;;;9.25;;
9166;SDS011;4618;48.818;9.088;2023-08-17T14:01:01;10.45;;;9.45;;
9166;SDS011;4618;48.818;9.088;2023-08-17T14:03:27;10.57;;;9.48;;
9166;SDS011;4618;48.818;9.088;2023-08-17T14:05:53;10.98;;;9.82;;
9166;SDS011;4618;48.818;9.088;2023-08-17T14:08:19;11.15;;;9.65;;
9166;SDS011;4618;48.818;9.088;2023-08-17T14:10:45;10.85;;;9.88;;
9166;SDS011;4618;48.818;9.088;2023-08-17T14:13:10;11.57;;;10.48;;
9166;SDS011;4618;48.818;9.088;2023-08-17T14:15:36;10.75;;;9.65;;
9166;SDS011;4618;48.818;9.088;2023-08-17T14:18:02;11.10;;;10.13;;
9166;SDS011;4618;48.818;9.088;2023-08-17T14:20:28;11.45;;;10.38;;
9166;SDS011;4618;48.818;9.088;2023-08-17T14:22:54;12.18;;;10.98;;
9166;SDS011;4618;48.818;9.088;2023-08-17T14:25:19;13.65;;;12.35;;
9166;SDS011;4618;48.818;9.088;2023-08-17T14:27:45;13.05;;;11.95;;
9166;SDS011;4618;48.818;9.088;2023-08-17T14:30:11;12.63;;;11.57;;
9166;SDS011;4618;48.818;9.088;2023-08-17T14:32:37;13.07;;;11.80;;
9166;SDS011;4618;48.818;9.088;2023-08-17T14:35:02;12.88;;;10.73;;
9166;SDS011;4618;48.818;9.088;2023-08-17T14:37:28;11.80;;;10.70;;
9166;SDS011;4618;48.818;9.088;2023-08-17T14:39:54;11.48;;;10.48;;
9166;SDS011;4618;48.818;9.088;2023-08-17T14:42:19;12.38;;;9.55;;
9166;SDS011;4618;48.818;9.088;2023-08-17T14:44:45;10.68;;;9.68;;
9166;SDS011;4618;48.818;9.088;2023-08-17T14:47:10;10.80;;;9.73;;
9166;SDS011;4618;48.818;9.088;2023-08-17T14:49:36;9.93;;;8.88;;
9166;SDS011;4618;48.818;9.088;2023-08-17T14:52:01;9.27;;;8.40;;
9166;SDS011;4618;48.818;9.088;2023-08-17T14:54:27;9.30;;;7.80;;
9166;SDS011;4618;48.818;9.088;2023-08-17T14:56:53;9.32;;;8.48;;
9166;SDS011;4618;48.818;9.088;2023-08-17T14:59:18;8.93;;;7.97;;
9166;SDS011;4618;48.818;9.088;2023-08-17T15:01:44;8.13;;;7.40;;